sensor_id;sensor_type;location;lat;lon;timestamp;P1;durP1;ratioP1;P2;durP2;ratioP2
6928;SDS011;3504;52.616;13.238;2024-01-30T00:02:34;16.70;;;10.40;;
6928;SDS011;3504;52.616;13.238;2024-01-30T00:07:34;17.90;;;10.93;;
6928;SDS011;3504;52.616;13.238;2024-01-30T00:12:35;15.13;;;10.30;;
6928;SDS011;3504;52.616;13.238;2024-01-30T00:17:36;15.90;;;9.77;;
6928;SDS011;3504;52.616;13.238;2024-01-30T00:22:37;18.40;;;10.77;;
6928;SDS011;3504;52.616;13.238;2024-01-30T00:27:37;17.80;;;11.83;;
6928;SDS011;3504;52.616;13.238;2024-01-30T00:32:38;19.53;;;11.67;;
6928;SDS011;3504;52.616;13.238;2024-01-30T00:37:38;17.67;;;11.50;;
6928;SDS011;3504;52.616;13.238;2024-01-30T00:42:38;20.17;;;12.00;;
6928;SDS011;3504;52.616;13.238;2024-01-30T00:47:39;17.70;;;12.70;;
6928;SDS011;3504;52.616;13.238;2024-01-30T00:52:39;19.57;;;11.90;;
6928;SDS011;3504;52.616;13.238;2024-01-30T00:57:41;18.73;;;11.67;;
6928;SDS011;3504;52.616;13.238;2024-01-30T01:02:41;17.40;;;11.37;;
6928;SDS011;3504;52.616;13.238;2024-01-30T01:07:42;18.87;;;11.83;;
6928;SDS011;3504;52.616;13.238;2024-01-30T01:12:43;16.93;;;10.83;;
6928;SDS011;3504;52.616;13.238;2024-01-30T01:17:44;16.57;;;10.47;;
6928;SDS011;3504;52.616;13.238;2024-01-30T01:22:45;16.00;;;10.87;;
6928;SDS011;3504;52.616;13.238;2024-01-30T01:27:45;16.90;;;9.97;;
6928;SDS011;3504;52.616;13.238;2024-01-30T01:32:51;15.27;;;9.97;;
6928;SDS011;3504;52.616;13.238;2024-01-30T01:37:55;14.00;;;9.70;;
6928;SDS011;3504;52.616;13.238;2024-01-30T01:42:55;12.30;;;8.77;;
6928;SDS011;3504;52.616;13.238;2024-01-30T01:47:56;16.77;;;9.17;;
6928;SDS011;3504;52.616;13.238;2024-01-30T01:52:57;14.63;;;8.90;;
6928;SDS011;3504;52.616;13.238;2024-01-30T01:57:58;15.33;;;8.77;;
6928;SDS011;3504;52.616;13.238;2024-01-30T02:02:59;14.53;;;10.13;;
6928;SDS011;3504;52.616;13.238;2024-01-30T02:08:04;13.67;;;9.57;;
6928;SDS011;3504;52.616;13.238;2024-01-30T02:13:05;12.67;;;8.33;;
6928;SDS011;3504;52.616;13.238;2024-01-30T02:18:06;13.27;;;8.90;;
6928;SDS011;3504;52.616;13.238;2024-01-30T02:23:06;16.07;;;9.33;;
6928;SDS011;3504;52.616;13.238;2024-01-30T02:28:09;16.07;;;8.40;;
6928;SDS011;3504;52.616;13.238;2024-01-30T02:33:13;20.13;;;8.87;;
6928;SDS011;3504;52.616;13.238;2024-01-30T02:38:15;13.80;;;8.93;;
6928;SDS011;3504;52.616;13.238;2024-01-30T02:43:15;13.83;;;8.77;;
6928;SDS011;3504;52.616;13.238;2024-01-30T02:48:16;11.97;;;7.97;;
6928;SDS011;3504;52.616;13.238;2024-01-30T02:53:17;15.53;;;8.43;;
6928;SDS011;3504;52.616;13.238;2024-01-30T02:58:18;14.83;;;8.13;;
6928;SDS011;3504;52.616;13.238;2024-01-30T03:03:18;13.03;;;8.47;;
6928;SDS011;3504;52.616;13.238;2024-01-30T03:08:19;13.73;;;8.50;;
6928;SDS011;3504;52.616;13.238;2024-01-30T03:13:19;13.73;;;8.33;;
6928;SDS011;3504;52.616;13.238;2024-01-30T03:18:20;12.67;;;8.10;;
6928;SDS011;3504;52.616;13.238;2024-01-30T03:23:20;12.83;;;7.73;;
6928;SDS011;3504;52.616;13.238;2024-01-30T03:28:21;14.73;;;9.13;;
6928;SDS011;3504;52.616;13.238;2024-01-30T03:33:22;14.43;;;8.67;;
6928;SDS011;3504;52.616;13.238;2024-01-30T03:38:22;13.13;;;8.13;;
6928;SDS011;3504;52.616;13.238;2024-01-30T03:43:23;13.30;;;7.73;;
6928;SDS011;3504;52.616;13.238;2024-01-30T03:48:23;16.47;;;9.17;;
6928;SDS011;3504;52.616;13.238;2024-01-30T03:53:24;15.80;;;9.47;;
6928;SDS011;3504;52.616;13.238;2024-01-30T03:58:25;15.10;;;8.23;;
6928;SDS011;3504;52.616;13.238;2024-01-30T04:03:26;12.00;;;8.37;;
6928;SDS011;3504;52.616;13.238;2024-01-30T04:08:26;13.10;;;8.23;;
6928;SDS011;3504;52.616;13.238;2024-01-30T04:13:27;16.73;;;8.97;;
6928;SDS011;3504;52.616;13.238;2024-01-30T04:18:27;14.70;;;9.33;;
6928;SDS011;3504;52.616;13.238;2024-01-30T04:23:28;11.73;;;8.20;;
6928;SDS011;3504;52.616;13.238;2024-01-30T04:28:29;11.03;;;8.27;;
6928;SDS011;3504;52.616;13.238;2024-01-30T04:33:30;13.93;;;8.33;;
6928;SDS011;3504;52.616;13.238;2024-01-30T04:38:31;11.60;;;9.00;;
6928;SDS011;3504;52.616;13.238;2024-01-30T04:43:31;13.50;;;9.47;;
6928;SDS011;3504;52.616;13.238;2024-01-30T04:48:32;14.40;;;8.93;;
6928;SDS011;3504;52.616;13.238;2024-01-30T04:53:32;15.93;;;9.93;;
6928;SDS011;3504;52.616;13.238;2024-01-30T04:58:33;14.53;;;8.40;;
6928;SDS011;3504;52.616;13.238;2024-01-30T05:03:34;15.13;;;10.37;;
6928;SDS011;3504;52.616;13.238;2024-01-30T05:08:35;12.07;;;9.37;;
6928;SDS011;3504;52.616;13.238;2024-01-30T05:13:36;14.07;;;8.83;;
6928;SDS011;3504;52.616;13.238;2024-01-30T05:18:37;12.63;;;9.40;;
6928;SDS011;3504;52.616;13.238;2024-01-30T05:23:37;14.77;;;9.37;;
6928;SDS011;3504;52.616;13.238;2024-01-30T05:28:38;10.80;;;8.67;;
6928;SDS011;3504;52.616;13.238;2024-01-30T05:33:38;11.47;;;8.27;;
6928;SDS011;3504;52.616;13.238;2024-01-30T05:38:39;14.87;;;8.57;;
6928;SDS011;3504;52.616;13.238;2024-01-30T05:43:40;16.87;;;9.20;;
6928;SDS011;3504;52.616;13.238;2024-01-30T05:48:41;13.87;;;9.20;;
6928;SDS011;3504;52.616;13.238;2024-01-30T05:53:41;13.33;;;8.33;;
6928;SDS011;3504;52.616;13.238;2024-01-30T05:58:42;12.33;;;8.20;;
6928;SDS011;3504;52.616;13.238;2024-01-30T06:03:43;12.57;;;8.33;;
6928;SDS011;3504;52.616;13.238;2024-01-30T06:08:44;13.27;;;9.03;;
6928;SDS011;3504;52.616;13.238;2024-01-30T06:13:44;12.70;;;9.13;;
6928;SDS011;3504;52.616;13.238;2024-01-30T06:18:44;15.30;;;9.63;;
6928;SDS011;3504;52.616;13.238;2024-01-30T06:23:45;14.27;;;8.87;;
6928;SDS011;3504;52.616;13.238;2024-01-30T06:28:45;15.83;;;9.53;;
6928;SDS011;3504;52.616;13.238;2024-01-30T06:33:49;19.70;;;11.80;;
6928;SDS011;3504;52.616;13.238;2024-01-30T06:38:50;20.57;;;11.60;;
6928;SDS011;3504;52.616;13.238;2024-01-30T06:43:53;17.13;;;10.17;;
6928;SDS011;3504;52.616;13.238;2024-01-30T06:48:57;18.43;;;10.47;;
6928;SDS011;3504;52.616;13.238;2024-01-30T06:54:00;16.50;;;9.40;;
6928;SDS011;3504;52.616;13.238;2024-01-30T06:59:00;18.03;;;10.13;;
6928;SDS011;3504;52.616;13.238;2024-01-30T07:04:01;15.13;;;9.13;;
6928;SDS011;3504;52.616;13.238;2024-01-30T07:09:01;14.37;;;9.40;;
6928;SDS011;3504;52.616;13.238;2024-01-30T07:14:03;14.67;;;8.87;;
6928;SDS011;3504;52.616;13.238;2024-01-30T07:19:04;16.90;;;10.07;;
6928;SDS011;3504;52.616;13.238;2024-01-30T07:24:05;16.73;;;9.90;;
6928;SDS011;3504;52.616;13.238;2024-01-30T07:29:06;15.23;;;9.17;;
6928;SDS011;3504;52.616;13.238;2024-01-30T07:34:09;16.50;;;9.73;;
6928;SDS011;3504;52.616;13.238;2024-01-30T07:39:10;16.60;;;9.93;;
6928;SDS011;3504;52.616;13.238;2024-01-30T07:44:11;14.73;;;9.70;;
6928;SDS011;3504;52.616;13.238;2024-01-30T07:49:11;15.83;;;10.47;;
6928;SDS011;3504;52.616;13.238;2024-01-30T07:54:14;15.20;;;10.10;;
6928;SDS011;3504;52.616;13.238;2024-01-30T07:59:14;15.27;;;9.80;;
6928;SDS011;3504;52.616;13.238;2024-01-30T08:04:15;14.00;;;10.33;;
6928;SDS011;3504;52.616;13.238;2024-01-30T08:09:15;15.07;;;9.17;;
6928;SDS011;3504;52.616;13.238;2024-01-30T08:14:16;16.53;;;10.10;;
6928;SDS011;3504;52.616;13.238;2024-01-30T08:19:16;14.20;;;9.87;;
6928;SDS011;3504;52.616;13.238;2024-01-30T08:24:17;15.83;;;10.60;;
6928;SDS011;3504;52.616;13.238;2024-01-30T08:29:17;14.40;;;9.47;;
6928;SDS011;3504;52.616;13.238;2024-01-30T08:34:18;14.77;;;9.27;;
6928;SDS011;3504;52.616;13.238;2024-01-30T08:39:19;15.30;;;9.97;;
6928;SDS011;3504;52.616;13.238;2024-01-30T08:44:19;15.20;;;9.40;;
6928;SDS011;3504;52.616;13.238;2024-01-30T08:49:20;15.33;;;9.37;;
6928;SDS011;3504;52.616;13.238;2024-01-30T08:54:21;14.03;;;10.03;;
6928;SDS011;3504;52.616;13.238;2024-01-30T08:59:21;15.00;;;10.30;;
6928;SDS011;3504;52.616;13.238;2024-01-30T09:04:22;16.13;;;9.83;;
6928;SDS011;3504;52.616;13.238;2024-01-30T09:09:23;15.73;;;10.30;;
6928;SDS011;3504;52.616;13.238;2024-01-30T09:14:23;15.60;;;9.83;;
6928;SDS011;3504;52.616;13.238;2024-01-30T09:19:24;14.17;;;9.57;;
6928;SDS011;3504;52.616;13.238;2024-01-30T09:24:25;13.57;;;8.57;;
6928;SDS011;3504;52.616;13.238;2024-01-30T09:29:26;15.43;;;9.97;;
6928;SDS011;3504;52.616;13.238;2024-01-30T09:34:27;13.67;;;9.23;;
6928;SDS011;3504;52.616;13.238;2024-01-30T09:39:27;12.63;;;8.90;;
6928;SDS011;3504;52.616;13.238;2024-01-30T09:44:28;14.00;;;9.03;;
6928;SDS011;3504;52.616;13.238;2024-01-30T09:49:33;13.83;;;9.50;;
6928;SDS011;3504;52.616;13.238;2024-01-30T09:54:35;13.93;;;8.97;;
6928;SDS011;3504;52.616;13.238;2024-01-30T09:59:36;15.50;;;9.37;;
6928;SDS011;3504;52.616;13.238;2024-01-30T10:04:36;14.33;;;9.00;;
6928;SDS011;3504;52.616;13.238;2024-01-30T10:09:37;12.70;;;8.83;;
6928;SDS011;3504;52.616;13.238;2024-01-30T10:14:40;13.93;;;8.77;;
6928;SDS011;3504;52.616;13.238;2024-01-30T10:19:42;12.83;;;8.77;;
6928;SDS011;3504;52.616;13.238;2024-01-30T10:24:42;12.40;;;7.87;;
6928;SDS011;3504;52.616;13.238;2024-01-30T10:29:48;12.63;;;8.97;;
6928;SDS011;3504;52.616;13.238;2024-01-30T10:34:48;15.70;;;8.43;;
6928;SDS011;3504;52.616;13.238;2024-01-30T10:39:49;13.07;;;8.43;;
6928;SDS011;3504;52.616;13.238;2024-01-30T10:45:26;10.87;;;7.87;;
6928;SDS011;3504;52.616;13.238;2024-01-30T10:50:20;12.17;;;8.20;;
6928;SDS011;3504;52.616;13.238;2024-01-30T10:55:24;12.53;;;7.77;;
6928;SDS011;3504;52.616;13.238;2024-01-30T11:00:28;12.23;;;8.67;;
6928;SDS011;3504;52.616;13.238;2024-01-30T11:05:29;15.43;;;7.60;;
6928;SDS011;3504;52.616;13.238;2024-01-30T11:10:29;11.87;;;7.67;;
6928;SDS011;3504;52.616;13.238;2024-01-30T11:15:31;12.33;;;8.17;;
6928;SDS011;3504;52.616;13.238;2024-01-30T11:20:32;11.83;;;8.37;;
6928;SDS011;3504;52.616;13.238;2024-01-30T11:25:32;13.23;;;8.63;;
6928;SDS011;3504;52.616;13.238;2024-01-30T11:30:35;11.97;;;7.93;;
6928;SDS011;3504;52.616;13.238;2024-01-30T11:35:39;11.30;;;7.20;;
6928;SDS011;3504;52.616;13.238;2024-01-30T11:40:44;11.73;;;8.37;;
6928;SDS011;3504;52.616;13.238;2024-01-30T11:45:45;12.33;;;7.50;;
6928;SDS011;3504;52.616;13.238;2024-01-30T11:50:46;13.40;;;8.53;;
6928;SDS011;3504;52.616;13.238;2024-01-30T11:55:50;12.37;;;8.23;;
6928;SDS011;3504;52.616;13.238;2024-01-30T12:00:54;11.87;;;8.40;;
6928;SDS011;3504;52.616;13.238;2024-01-30T12:05:56;12.13;;;8.47;;
6928;SDS011;3504;52.616;13.238;2024-01-30T12:10:58;13.13;;;8.63;;
6928;SDS011;3504;52.616;13.238;2024-01-30T12:15:59;13.33;;;8.60;;
6928;SDS011;3504;52.616;13.238;2024-01-30T12:21:01;13.93;;;8.90;;
6928;SDS011;3504;52.616;13.238;2024-01-30T12:26:02;13.13;;;8.73;;
6928;SDS011;3504;52.616;13.238;2024-01-30T12:31:07;11.73;;;8.13;;
6928;SDS011;3504;52.616;13.238;2024-01-30T12:36:08;11.53;;;8.20;;
6928;SDS011;3504;52.616;13.238;2024-01-30T12:41:11;10.87;;;8.43;;
6928;SDS011;3504;52.616;13.238;2024-01-30T12:46:12;14.33;;;9.57;;
6928;SDS011;3504;52.616;13.238;2024-01-30T12:51:12;13.37;;;8.87;;
6928;SDS011;3504;52.616;13.238;2024-01-30T12:56:13;13.77;;;8.83;;
6928;SDS011;3504;52.616;13.238;2024-01-30T13:01:14;13.40;;;8.63;;
6928;SDS011;3504;52.616;13.238;2024-01-30T13:06:14;14.20;;;8.83;;
6928;SDS011;3504;52.616;13.238;2024-01-30T13:11:15;11.83;;;8.70;;
6928;SDS011;3504;52.616;13.238;2024-01-30T13:16:15;14.37;;;8.87;;
6928;SDS011;3504;52.616;13.238;2024-01-30T13:21:16;14.80;;;8.80;;
6928;SDS011;3504;52.616;13.238;2024-01-30T13:26:17;12.97;;;7.87;;
6928;SDS011;3504;52.616;13.238;2024-01-30T13:31:17;12.17;;;8.13;;
6928;SDS011;3504;52.616;13.238;2024-01-30T13:36:19;13.07;;;8.67;;
6928;SDS011;3504;52.616;13.238;2024-01-30T13:41:20;10.67;;;8.20;;
6928;SDS011;3504;52.616;13.238;2024-01-30T13:46:21;12.80;;;8.03;;
6928;SDS011;3504;52.616;13.238;2024-01-30T13:51:21;13.63;;;8.90;;
6928;SDS011;3504;52.616;13.238;2024-01-30T13:56:22;13.93;;;8.97;;
6928;SDS011;3504;52.616;13.238;2024-01-30T14:01:23;13.50;;;8.70;;
6928;SDS011;3504;52.616;13.238;2024-01-30T14:06:24;11.30;;;8.20;;
6928;SDS011;3504;52.616;13.238;2024-01-30T14:11:24;11.93;;;8.07;;
6928;SDS011;3504;52.616;13.238;2024-01-30T14:16:25;15.27;;;8.67;;
6928;SDS011;3504;52.616;13.238;2024-01-30T14:21:25;11.93;;;7.70;;
6928;SDS011;3504;52.616;13.238;2024-01-30T14:26:26;12.70;;;8.40;;
6928;SDS011;3504;52.616;13.238;2024-01-30T14:31:26;8.60;;;7.70;;
6928;SDS011;3504;52.616;13.238;2024-01-30T14:36:27;12.53;;;7.73;;
6928;SDS011;3504;52.616;13.238;2024-01-30T14:41:28;12.17;;;8.07;;
6928;SDS011;3504;52.616;13.238;2024-01-30T14:46:28;13.47;;;8.23;;
6928;SDS011;3504;52.616;13.238;2024-01-30T14:51:29;11.17;;;7.67;;
6928;SDS011;3504;52.616;13.238;2024-01-30T14:56:30;11.67;;;7.93;;
6928;SDS011;3504;52.616;13.238;2024-01-30T15:01:30;11.40;;;7.60;;
6928;SDS011;3504;52.616;13.238;2024-01-30T15:06:31;37.90;;;9.30;;
6928;SDS011;3504;52.616;13.238;2024-01-30T15:11:31;10.73;;;7.93;;
6928;SDS011;3504;52.616;13.238;2024-01-30T15:16:33;12.80;;;8.20;;
6928;SDS011;3504;52.616;13.238;2024-01-30T15:21:33;12.27;;;8.00;;
6928;SDS011;3504;52.616;13.238;2024-01-30T15:26:34;11.63;;;7.73;;
6928;SDS011;3504;52.616;13.238;2024-01-30T15:31:34;11.70;;;7.17;;
6928;SDS011;3504;52.616;13.238;2024-01-30T15:36:35;10.53;;;7.73;;
6928;SDS011;3504;52.616;13.238;2024-01-30T15:41:36;11.43;;;8.03;;
6928;SDS011;3504;52.616;13.238;2024-01-30T15:46:36;12.50;;;7.70;;
6928;SDS011;3504;52.616;13.238;2024-01-30T15:51:37;12.00;;;8.63;;
6928;SDS011;3504;52.616;13.238;2024-01-30T15:56:37;13.03;;;7.83;;
6928;SDS011;3504;52.616;13.238;2024-01-30T16:01:38;11.20;;;8.00;;
6928;SDS011;3504;52.616;13.238;2024-01-30T16:06:38;11.57;;;8.30;;
6928;SDS011;3504;52.616;13.238;2024-01-30T16:11:40;14.23;;;8.40;;
6928;SDS011;3504;52.616;13.238;2024-01-30T16:16:41;13.27;;;8.87;;
6928;SDS011;3504;52.616;13.238;2024-01-30T16:21:41;14.17;;;10.37;;
6928;SDS011;3504;52.616;13.238;2024-01-30T16:26:45;12.63;;;8.90;;
6928;SDS011;3504;52.616;13.238;2024-01-30T16:31:46;16.13;;;9.40;;
6928;SDS011;3504;52.616;13.238;2024-01-30T16:36:47;14.53;;;9.60;;
6928;SDS011;3504;52.616;13.238;2024-01-30T16:41:47;12.80;;;9.23;;
6928;SDS011;3504;52.616;13.238;2024-01-30T16:46:47;17.87;;;11.77;;
6928;SDS011;3504;52.616;13.238;2024-01-30T16:51:48;35.17;;;21.10;;
6928;SDS011;3504;52.616;13.238;2024-01-30T16:56:49;41.53;;;28.03;;
6928;SDS011;3504;52.616;13.238;2024-01-30T17:01:50;39.40;;;26.53;;
6928;SDS011;3504;52.616;13.238;2024-01-30T17:06:50;42.07;;;28.93;;
6928;SDS011;3504;52.616;13.238;2024-01-30T17:11:53;23.47;;;16.70;;
6928;SDS011;3504;52.616;13.238;2024-01-30T17:16:54;21.17;;;13.33;;
6928;SDS011;3504;52.616;13.238;2024-01-30T17:21:54;19.47;;;12.97;;
6928;SDS011;3504;52.616;13.238;2024-01-30T17:26:55;19.27;;;13.00;;
6928;SDS011;3504;52.616;13.238;2024-01-30T17:31:55;36.07;;;26.47;;
6928;SDS011;3504;52.616;13.238;2024-01-30T17:36:56;24.50;;;17.33;;
6928;SDS011;3504;52.616;13.238;2024-01-30T17:41:56;159.67;;;90.57;;
6928;SDS011;3504;52.616;13.238;2024-01-30T17:46:58;150.03;;;84.77;;
6928;SDS011;3504;52.616;13.238;2024-01-30T17:51:59;280.37;;;146.50;;
6928;SDS011;3504;52.616;13.238;2024-01-30T17:56:59;194.53;;;102.17;;
6928;SDS011;3504;52.616;13.238;2024-01-30T18:02:00;97.27;;;53.33;;
6928;SDS011;3504;52.616;13.238;2024-01-30T18:07:00;28.50;;;20.43;;
6928;SDS011;3504;52.616;13.238;2024-01-30T18:12:01;23.13;;;16.30;;
6928;SDS011;3504;52.616;13.238;2024-01-30T18:17:02;21.33;;;13.90;;
6928;SDS011;3504;52.616;13.238;2024-01-30T18:22:02;20.60;;;13.27;;
6928;SDS011;3504;52.616;13.238;2024-01-30T18:27:03;19.27;;;13.00;;
6928;SDS011;3504;52.616;13.238;2024-01-30T18:32:04;16.80;;;12.30;;
6928;SDS011;3504;52.616;13.238;2024-01-30T18:37:05;20.03;;;14.40;;
6928;SDS011;3504;52.616;13.238;2024-01-30T18:42:06;15.00;;;11.17;;
6928;SDS011;3504;52.616;13.238;2024-01-30T18:47:07;13.53;;;10.07;;
6928;SDS011;3504;52.616;13.238;2024-01-30T18:52:08;14.33;;;10.53;;
6928;SDS011;3504;52.616;13.238;2024-01-30T18:57:08;14.37;;;9.77;;
6928;SDS011;3504;52.616;13.238;2024-01-30T19:02:09;11.83;;;9.83;;
6928;SDS011;3504;52.616;13.238;2024-01-30T19:07:09;11.60;;;9.47;;
6928;SDS011;3504;52.616;13.238;2024-01-30T19:12:10;15.00;;;10.60;;
6928;SDS011;3504;52.616;13.238;2024-01-30T19:17:10;14.83;;;10.63;;
6928;SDS011;3504;52.616;13.238;2024-01-30T19:22:11;16.67;;;10.30;;
6928;SDS011;3504;52.616;13.238;2024-01-30T19:27:11;12.00;;;9.90;;
6928;SDS011;3504;52.616;13.238;2024-01-30T19:32:12;17.57;;;10.97;;
6928;SDS011;3504;52.616;13.238;2024-01-30T19:37:12;12.93;;;9.47;;
6928;SDS011;3504;52.616;13.238;2024-01-30T19:42:13;11.90;;;9.50;;
6928;SDS011;3504;52.616;13.238;2024-01-30T19:47:13;12.80;;;9.30;;
6928;SDS011;3504;52.616;13.238;2024-01-30T19:52:14;14.60;;;10.33;;
6928;SDS011;3504;52.616;13.238;2024-01-30T19:57:15;15.07;;;10.63;;
6928;SDS011;3504;52.616;13.238;2024-01-30T20:02:15;17.80;;;15.10;;
6928;SDS011;3504;52.616;13.238;2024-01-30T20:07:19;21.67;;;13.60;;
6928;SDS011;3504;52.616;13.238;2024-01-30T20:12:20;16.87;;;11.57;;
6928;SDS011;3504;52.616;13.238;2024-01-30T20:17:21;16.77;;;12.30;;
6928;SDS011;3504;52.616;13.238;2024-01-30T20:22:21;18.87;;;12.90;;
6928;SDS011;3504;52.616;13.238;2024-01-30T20:27:21;17.13;;;12.47;;
6928;SDS011;3504;52.616;13.238;2024-01-30T20:32:22;19.03;;;12.90;;
6928;SDS011;3504;52.616;13.238;2024-01-30T20:37:23;20.80;;;13.80;;
6928;SDS011;3504;52.616;13.238;2024-01-30T20:42:24;18.87;;;13.33;;
6928;SDS011;3504;52.616;13.238;2024-01-30T20:47:25;18.60;;;12.33;;
6928;SDS011;3504;52.616;13.238;2024-01-30T20:52:25;20.30;;;13.93;;
6928;SDS011;3504;52.616;13.238;2024-01-30T20:57:26;19.27;;;13.37;;
6928;SDS011;3504;52.616;13.238;2024-01-30T21:02:27;23.23;;;15.20;;
6928;SDS011;3504;52.616;13.238;2024-01-30T21:07:27;20.70;;;14.20;;
6928;SDS011;3504;52.616;13.238;2024-01-30T21:12:28;16.30;;;11.77;;
6928;SDS011;3504;52.616;13.238;2024-01-30T21:17:28;18.83;;;15.07;;
6928;SDS011;3504;52.616;13.238;2024-01-30T21:22:29;17.40;;;11.73;;
6928;SDS011;3504;52.616;13.238;2024-01-30T21:27:29;16.10;;;11.30;;
6928;SDS011;3504;52.616;13.238;2024-01-30T21:32:30;14.40;;;10.50;;
6928;SDS011;3504;52.616;13.238;2024-01-30T21:37:31;17.83;;;10.67;;
6928;SDS011;3504;52.616;13.238;2024-01-30T21:42:35;16.37;;;10.67;;
6928;SDS011;3504;52.616;13.238;2024-01-30T21:47:36;14.33;;;10.67;;
6928;SDS011;3504;52.616;13.238;2024-01-30T21:52:36;17.13;;;10.80;;
6928;SDS011;3504;52.616;13.238;2024-01-30T21:57:37;16.73;;;9.33;;
6928;SDS011;3504;52.616;13.238;2024-01-30T22:02:37;19.90;;;11.13;;
6928;SDS011;3504;52.616;13.238;2024-01-30T22:07:38;15.13;;;10.40;;
6928;SDS011;3504;52.616;13.238;2024-01-30T22:12:39;13.83;;;10.23;;
6928;SDS011;3504;52.616;13.238;2024-01-30T22:17:39;14.17;;;9.97;;
6928;SDS011;3504;52.616;13.238;2024-01-30T22:22:40;16.00;;;10.10;;
6928;SDS011;3504;52.616;13.238;2024-01-30T22:27:40;15.37;;;10.40;;
6928;SDS011;3504;52.616;13.238;2024-01-30T22:32:41;13.60;;;10.30;;
6928;SDS011;3504;52.616;13.238;2024-01-30T22:37:41;20.40;;;12.57;;
6928;SDS011;3504;52.616;13.238;2024-01-30T22:42:42;18.97;;;11.80;;
6928;SDS011;3504;52.616;13.238;2024-01-30T22:47:42;18.10;;;11.83;;
6928;SDS011;3504;52.616;13.238;2024-01-30T22:52:44;14.83;;;11.50;;
6928;SDS011;3504;52.616;13.238;2024-01-30T22:57:46;18.17;;;12.30;;
6928;SDS011;3504;52.616;13.238;2024-01-30T23:02:46;18.07;;;12.13;;
6928;SDS011;3504;52.616;13.238;2024-01-30T23:07:47;18.90;;;12.33;;
6928;SDS011;3504;52.616;13.238;2024-01-30T23:12:48;18.40;;;12.70;;
6928;SDS011;3504;52.616;13.238;2024-01-30T23:17:48;21.37;;;15.10;;
6928;SDS011;3504;52.616;13.238;2024-01-30T23:22:49;32.17;;;16.93;;
6928;SDS011;3504;52.616;13.238;2024-01-30T23:27:49;28.23;;;17.67;;
6928;SDS011;3504;52.616;13.238;2024-01-30T23:32:50;22.70;;;14.47;;
6928;SDS011;3504;52.616;13.238;2024-01-30T23:37:53;20.30;;;13.40;;
6928;SDS011;3504;52.616;13.238;2024-01-30T23:42:54;18.83;;;13.17;;
6928;SDS011;3504;52.616;13.238;2024-01-30T23:47:55;17.17;;;11.50;;
6928;SDS011;3504;52.616;13.238;2024-01-30T23:52:55;16.87;;;11.60;;
6928;SDS011;3504;52.616;13.238;2024-01-30T23:57:56;15.30;;;10.67;;
